Time;durP1;ratioP1;P1;durP2;ratioP2;P2;SDS_P1;SDS_P2;PMS_P1;PMS_P2;Temp;Humidity;BMP_temperature;BMP_pressure;BME280_temperature;BME280_humidity;BME280_pressure;Samples;Min_cycle;Max_cycle;Signal;HPM_P1;HPM_P2
2022/01/03 00:00:08;;;;;;;;;;;9.80;99.90;;;;;;5001646;28;19933;-81
2022/01/03 00:02:36;;;;;;;;;;;10.00;99.90;;;;;;5002147;28;19937;-80
2022/01/03 00:05:02;;;;;;;;;;;9.80;99.90;;;;;;5001876;28;19937;-80
2022/01/03 00:07:29;;;;;;;;;;;9.70;99.90;;;;;;5000982;28;19980;-80
2022/01/03 00:09:57;;;;;;;;;;;9.70;99.90;;;;;;5001526;28;19941;-80
2022/01/03 00:12:24;;;;;;;;;;;9.70;99.90;;;;;;5001870;28;19933;-81
2022/01/03 00:14:51;;;;;;;;;;;9.70;99.90;;;;;;5001503;28;19977;-81
2022/01/03 00:17:17;;;;;;;;;;;9.70;99.90;;;;;;5002111;28;19933;-81
2022/01/03 00:19:45;;;;;;;;;;;9.80;99.90;;;;;;5001886;28;19972;-80
2022/01/03 00:22:12;;;;;;;;;;;9.80;99.90;;;;;;5001602;28;19992;-81
2022/01/03 00:24:39;;;;;;;;;;;9.80;99.90;;;;;;5001158;28;19980;-80
2022/01/03 00:27:10;;;;;;;;;;;9.80;99.90;;;;;;5001883;28;19925;-79
2022/01/03 00:29:42;;;;;;;;;;;9.80;99.90;;;;;;5001585;28;19979;-80
2022/01/03 00:32:09;;;;;;;;;;;9.60;99.90;;;;;;5001813;28;19979;-80
2022/01/03 00:34:36;;;;;;;;;;;10.00;99.90;;;;;;5001738;28;19926;-80
2022/01/03 00:37:05;;;;;;;;;;;9.80;99.90;;;;;;5001944;28;19965;-81
2022/01/03 00:39:32;;;;;;;;;;;9.90;99.90;;;;;;5001735;28;19971;-80
2022/01/03 00:41:58;;;;;;;;;;;9.90;99.90;;;;;;5001314;28;20419;-81
2022/01/03 00:44:26;;;;;;;;;;;9.90;99.90;;;;;;4999429;28;19930;-80
2022/01/03 00:46:52;;;;;;;;;;;10.00;99.90;;;;;;4994535;28;19926;-80
2022/01/03 00:49:19;;;;;;;;;;;10.00;99.90;;;;;;4994144;28;19926;-80
2022/01/03 00:51:46;;;;;;;;;;;10.00;99.90;;;;;;4998414;28;19979;-78
2022/01/03 00:54:13;;;;;;;;;;;;;;;;;;5005107;28;19933;-78
2022/01/03 00:56:46;;;;;;;;;;;10.00;99.90;;;;;;5007749;28;19926;-79
2022/01/03 00:59:14;;;;;;;;;;;;;;;;;;5006860;28;19926;-79
2022/01/03 01:01:41;;;;;;;;;;;;;;;;;;5008600;28;19935;-79
2022/01/03 01:04:08;;;;;;;;;;;9.80;99.90;;;;;;5002896;28;20269;-80
2022/01/03 01:06:36;;;;;;;;;;;10.00;99.90;;;;;;5001759;28;19961;-80
2022/01/03 01:09:03;;;;;;;;;;;9.70;99.90;;;;;;5001132;28;19948;-81
2022/01/03 01:11:30;;;;;;;;;;;9.80;99.90;;;;;;5001376;28;19930;-80
2022/01/03 01:13:58;;;;;;;;;;;9.70;99.90;;;;;;5000678;28;20364;-81
2022/01/03 01:16:26;;;;;;;;;;;9.70;99.90;;;;;;5001798;28;20004;-78
2022/01/03 01:18:52;;;;;;;;;;;10.10;99.90;;;;;;5003867;28;19925;-79
2022/01/03 01:21:19;;;;;;;;;;;9.40;99.90;;;;;;5003437;28;19976;-79
2022/01/03 01:23:48;;;;;;;;;;;9.40;99.90;;;;;;5003279;28;19926;-79
2022/01/03 01:29:00;;;;;;;;;;;9.40;99.90;;;;;;5000428;28;20003;-79
2022/01/03 01:31:27;;;;;;;;;;;9.40;99.90;;;;;;4999808;28;19957;-79
2022/01/03 01:33:55;;;;;;;;;;;9.30;99.90;;;;;;5001367;28;20300;-81
2022/01/03 01:36:23;;;;;;;;;;;9.40;99.90;;;;;;5000664;28;19925;-79
2022/01/03 01:38:50;;;;;;;;;;;9.30;99.90;;;;;;5000568;28;19977;-80
2022/01/03 01:41:18;;;;;;;;;;;9.30;99.90;;;;;;4999746;28;19951;-80
2022/01/03 01:43:46;;;;;;;;;;;9.30;99.90;;;;;;5011165;28;19921;-80
2022/01/03 01:46:15;;;;;;;;;;;9.10;99.90;;;;;;5011009;28;19926;-81
2022/01/03 01:48:44;;;;;;;;;;;9.50;99.90;;;;;;5001348;28;20012;-80
2022/01/03 01:51:12;;;;;;;;;;;9.10;99.90;;;;;;5000616;28;19930;-79
2022/01/03 01:53:40;;;;;;;;;;;9.30;99.90;;;;;;5000217;28;19976;-80
2022/01/03 01:56:09;;;;;;;;;;;9.20;99.90;;;;;;4999905;28;20320;-80
2022/01/03 01:58:44;;;;;;;;;;;9.20;99.90;;;;;;5000420;28;19926;-80
2022/01/03 02:01:13;;;;;;;;;;;9.20;99.90;;;;;;5000537;28;19937;-80
2022/01/03 02:03:47;;;;;;;;;;;8.90;99.90;;;;;;5000329;28;19965;-80
2022/01/03 02:06:23;;;;;;;;;;;9.20;99.90;;;;;;4999909;28;19926;-80
2022/01/03 02:08:57;;;;;;;;;;;9.20;99.90;;;;;;5000497;28;19933;-80
2022/01/03 02:11:27;;;;;;;;;;;9.20;99.90;;;;;;5000121;28;19926;-80
2022/01/03 02:13:53;;;;;;;;;;;9.20;99.90;;;;;;5000785;28;19947;-80
2022/01/03 02:16:20;;;;;;;;;;;9.10;99.90;;;;;;5001886;28;19947;-79
2022/01/03 02:18:48;;;;;;;;;;;9.10;99.90;;;;;;5004945;28;19926;-80
2022/01/03 02:21:17;;;;;;;;;;;9.00;99.90;;;;;;5005463;28;19925;-80
2022/01/03 02:23:43;;;;;;;;;;;9.10;99.90;;;;;;5005966;28;19940;-78
2022/01/03 02:26:10;;;;;;;;;;;9.20;99.90;;;;;;5005787;28;19926;-77
2022/01/03 02:28:36;;;;;;;;;;;9.20;99.90;;;;;;5004303;28;19933;-81
2022/01/03 02:31:03;;;;;;;;;;;8.60;99.90;;;;;;4999077;28;19965;-81
2022/01/03 02:33:29;;;;;;;;;;;9.10;99.90;;;;;;4999479;28;20384;-79
2022/01/03 02:35:56;;;;;;;;;;;8.80;99.90;;;;;;4998690;28;19926;-80
2022/01/03 02:38:23;;;;;;;;;;;9.00;99.90;;;;;;4998577;28;19926;-80
2022/01/03 02:40:50;;;;;;;;;;;9.00;99.90;;;;;;4999888;28;19925;-80
2022/01/03 02:43:16;;;;;;;;;;;9.10;99.90;;;;;;5000313;28;19956;-80
2022/01/03 02:45:43;;;;;;;;;;;8.90;99.90;;;;;;4999309;28;19977;-79
2022/01/03 02:48:11;;;;;;;;;;;8.90;99.90;;;;;;5000196;28;19941;-80
2022/01/03 02:50:39;;;;;;;;;;;8.90;99.90;;;;;;4999718;28;20296;-80
2022/01/03 02:53:05;;;;;;;;;;;8.70;99.90;;;;;;4998888;28;19926;-79
2022/01/03 02:55:33;;;;;;;;;;;9.00;99.90;;;;;;4999235;28;19969;-81
2022/01/03 02:58:06;;;;;;;;;;;8.90;99.90;;;;;;5000082;28;19926;-81
2022/01/03 03:00:34;;;;;;;;;;;9.10;99.90;;;;;;4998696;28;20030;-80
2022/01/03 03:03:02;;;;;;;;;;;8.80;99.90;;;;;;4998999;28;19926;-80
2022/01/03 03:05:29;;;;;;;;;;;8.90;99.90;;;;;;4998859;28;20020;-80
2022/01/03 03:07:55;;;;;;;;;;;8.60;99.90;;;;;;4995368;28;19926;-80
2022/01/03 03:10:23;;;;;;;;;;;8.90;99.90;;;;;;4993304;28;19969;-79
2022/01/03 03:12:51;;;;;;;;;;;8.90;99.90;;;;;;4996413;28;19926;-80
2022/01/03 03:15:18;;;;;;;;;;;8.90;99.90;;;;;;4997279;28;19926;-79
2022/01/03 03:17:45;;;;;;;;;;;9.30;99.90;;;;;;4997660;28;19948;-78
2022/01/03 03:20:12;;;;;;;;;;;9.00;99.90;;;;;;4996920;28;19930;-80
2022/01/03 03:22:39;;;;;;;;;;;9.00;99.90;;;;;;4999958;28;19965;-79
2022/01/03 03:25:07;;;;;;;;;;;9.00;99.90;;;;;;5005255;28;20063;-79
2022/01/03 03:27:34;;;;;;;;;;;9.10;99.90;;;;;;5004669;28;19961;-78
2022/01/03 03:30:01;;;;;;;;;;;9.00;99.90;;;;;;5001310;28;19926;-80
2022/01/03 03:32:28;;;;;;;;;;;9.00;99.90;;;;;;4998053;28;19955;-80
2022/01/03 03:34:55;;;;;;;;;;;9.00;99.90;;;;;;4999103;28;19957;-80
2022/01/03 03:37:21;;;;;;;;;;;8.80;99.90;;;;;;4999390;28;19999;-80
2022/01/03 03:39:48;;;;;;;;;;;9.00;99.90;;;;;;4999968;28;19926;-79
2022/01/03 03:42:15;;;;;;;;;;;9.20;99.90;;;;;;4998957;28;19944;-79
2022/01/03 03:44:41;;;;;;;;;;;8.90;99.90;;;;;;5001995;28;19960;-78
2022/01/03 03:47:09;;;;;;;;;;;8.90;99.90;;;;;;5002242;28;19941;-78
2022/01/03 03:49:36;;;;;;;;;;;8.50;99.90;;;;;;5007078;28;19926;-80
2022/01/03 03:52:03;;;;;;;;;;;8.80;99.90;;;;;;5005835;28;19930;-79
2022/01/03 03:54:30;;;;;;;;;;;8.90;99.90;;;;;;5005858;28;19944;-80
2022/01/03 03:56:57;;;;;;;;;;;8.90;99.90;;;;;;5003394;28;19961;-80
2022/01/03 03:59:24;;;;;;;;;;;8.90;99.90;;;;;;5003226;28;19957;-80
2022/01/03 04:01:51;;;;;;;;;;;8.80;99.90;;;;;;5004251;28;19927;-80
2022/01/03 04:04:19;;;;;;;;;;;8.80;99.90;;;;;;5008412;28;19926;-79
2022/01/03 04:06:45;;;;;;;;;;;9.00;99.90;;;;;;5009337;28;19926;-79
2022/01/03 04:09:12;;;;;;;;;;;8.90;99.90;;;;;;5009944;28;20424;-79
2022/01/03 04:11:38;;;;;;;;;;;8.80;99.90;;;;;;5010448;28;20360;-79
2022/01/03 04:14:05;;;;;;;;;;;8.90;99.90;;;;;;5009048;28;19933;-80
2022/01/03 04:16:31;;;;;;;;;;;8.80;99.90;;;;;;5004490;28;19980;-78
2022/01/03 04:18:58;;;;;;;;;;;8.90;99.90;;;;;;5004841;28;19926;-79
2022/01/03 04:21:26;;;;;;;;;;;8.80;99.90;;;;;;5012974;28;20025;-78
2022/01/03 04:23:52;;;;;;;;;;;8.80;99.90;;;;;;5023668;23;19926;-82
2022/01/03 04:26:19;;;;;;;;;;;8.70;99.90;;;;;;4988212;28;19949;-82
2022/01/03 04:28:46;;;;;;;;;;;8.90;99.90;;;;;;4989219;28;19927;-82
2022/01/03 04:31:13;;;;;;;;;;;8.90;99.90;;;;;;4986647;28;19926;-82
2022/01/03 04:33:40;;;;;;;;;;;8.60;99.90;;;;;;4981640;28;19930;-83
2022/01/03 04:36:07;;;;;;;;;;;8.80;99.90;;;;;;4983031;28;19927;-79
2022/01/03 04:38:35;;;;;;;;;;;8.80;99.90;;;;;;4986239;28;19985;-80
2022/01/03 04:41:01;;;;;;;;;;;8.80;99.90;;;;;;4980806;28;19965;-82
2022/01/03 04:43:28;;;;;;;;;;;8.90;99.90;;;;;;4979773;28;19999;-82
2022/01/03 04:45:55;;;;;;;;;;;9.00;99.90;;;;;;4980406;28;19972;-83
2022/01/03 04:48:23;;;;;;;;;;;8.80;99.90;;;;;;4980495;28;19933;-82
2022/01/03 04:50:49;;;;;;;;;;;8.90;99.90;;;;;;4979063;28;19927;-81
2022/01/03 04:53:16;;;;;;;;;;;9.10;99.90;;;;;;4982200;28;19926;-83
2022/01/03 04:55:43;;;;;;;;;;;9.30;99.90;;;;;;4996704;28;19926;-79
2022/01/03 04:58:10;;;;;;;;;;;8.90;99.90;;;;;;4998256;28;19910;-79
2022/01/03 05:00:37;;;;;;;;;;;8.90;99.90;;;;;;4998119;28;19945;-79
2022/01/03 05:03:04;;;;;;;;;;;9.00;99.90;;;;;;4998104;28;19910;-81
2022/01/03 05:05:30;;;;;;;;;;;9.00;99.90;;;;;;4997943;28;19910;-81
2022/01/03 05:07:57;;;;;;;;;;;8.90;99.90;;;;;;4997248;28;19926;-81
2022/01/03 05:10:23;;;;;;;;;;;9.10;99.90;;;;;;4988587;28;19926;-79
2022/01/03 05:12:51;;;;;;;;;;;8.70;99.90;;;;;;4981822;28;19933;-81
2022/01/03 05:15:18;;;;;;;;;;;9.00;99.90;;;;;;4980030;28;19926;-82
2022/01/03 05:17:44;;;;;;;;;;;8.90;99.90;;;;;;4978261;28;19926;-81
2022/01/03 05:20:12;;;;;;;;;;;8.90;99.90;;;;;;4977945;28;19958;-81
2022/01/03 05:22:38;;;;;;;;;;;8.90;99.90;;;;;;4979239;28;20289;-83
2022/01/03 05:25:05;;;;;;;;;;;8.90;99.90;;;;;;4979266;28;19926;-81
2022/01/03 05:27:33;;;;;;;;;;;8.80;99.90;;;;;;4979948;28;19936;-84
2022/01/03 05:30:01;;;;;;;;;;;8.70;99.90;;;;;;4978976;28;19926;-81
2022/01/03 05:32:28;;;;;;;;;;;8.80;99.90;;;;;;4978698;28;19933;-82
2022/01/03 05:34:54;;;;;;;;;;;8.70;99.90;;;;;;4979220;28;19948;-82
2022/01/03 05:37:20;;;;;;;;;;;8.60;99.90;;;;;;4978357;28;20393;-82
2022/01/03 05:39:47;;;;;;;;;;;8.60;99.90;;;;;;4984883;28;19984;-82
2022/01/03 05:42:14;;;;;;;;;;;8.50;99.90;;;;;;4989004;28;19926;-82
2022/01/03 05:44:40;;;;;;;;;;;8.30;99.90;;;;;;4987763;28;19926;-82
2022/01/03 05:47:08;;;;;;;;;;;8.40;99.90;;;;;;4984021;28;19948;-83
2022/01/03 05:49:35;;;;;;;;;;;8.40;99.90;;;;;;4984597;28;19933;-80
2022/01/03 05:52:01;;;;;;;;;;;8.30;99.90;;;;;;4980185;28;19930;-81
2022/01/03 05:54:28;;;;;;;;;;;8.20;99.90;;;;;;4979887;28;19965;-82
2022/01/03 05:56:55;;;;;;;;;;;;;;;;;;4980629;28;19961;-82
2022/01/03 05:59:23;;;;;;;;;;;;;;;;;;4981538;28;19975;-82
2022/01/03 06:01:51;;;;;;;;;;;;;;;;;;4993821;28;19936;-82
2022/01/03 06:04:22;;;;;;;;;;;;;;;;;;4990483;28;20032;-82
2022/01/03 06:06:56;;;;;;;;;;;8.10;99.90;;;;;;4989105;28;19953;-81
2022/01/03 06:09:23;;;;;;;;;;;8.10;99.90;;;;;;4990414;28;19927;-81
2022/01/03 06:11:50;;;;;;;;;;;8.10;99.90;;;;;;4990776;28;19981;-82
2022/01/03 06:14:18;;;;;;;;;;;;;;;;;;4989273;28;19993;-80
2022/01/03 06:16:45;;;;;;;;;;;7.90;99.90;;;;;;4989355;28;19926;-80
2022/01/03 06:19:12;;;;;;;;;;;8.00;99.90;;;;;;4988016;28;19948;-82
2022/01/03 06:21:41;;;;;;;;;;;7.80;99.90;;;;;;4987873;28;19926;-81
2022/01/03 06:24:09;;;;;;;;;;;;;;;;;;4987156;28;19926;-83
2022/01/03 06:26:37;;;;;;;;;;;;;;;;;;4989689;28;19927;-81
2022/01/03 06:29:04;;;;;;;;;;;;;;;;;;4989191;28;20021;-81
2022/01/03 06:31:32;;;;;;;;;;;;;;;;;;4987645;28;19926;-80
2022/01/03 06:34:00;;;;;;;;;;;;;;;;;;4990096;28;19997;-81
2022/01/03 06:36:28;;;;;;;;;;;8.10;99.90;;;;;;4990870;28;19934;-82
2022/01/03 06:38:55;;;;;;;;;;;8.10;99.90;;;;;;4985293;28;19926;-79
2022/01/03 06:41:21;;;;;;;;;;;8.00;99.90;;;;;;4983709;28;19933;-81
2022/01/03 06:43:48;;;;;;;;;;;8.30;99.90;;;;;;4980333;28;19972;-83
2022/01/03 06:46:14;;;;;;;;;;;8.20;99.90;;;;;;4981487;28;19926;-83
2022/01/03 06:48:43;;;;;;;;;;;;;;;;;;4979571;28;19926;-81
2022/01/03 06:51:10;;;;;;;;;;;;;;;;;;4976908;28;19933;-81
2022/01/03 06:53:37;;;;;;;;;;;;;;;;;;4977646;28;19926;-82
2022/01/03 06:56:04;;;;;;;;;;;;;;;;;;4978480;28;20293;-83
2022/01/03 06:58:32;;;;;;;;;;;;;;;;;;4976887;28;19933;-79
2022/01/03 07:01:00;;;;;;;;;;;8.40;99.90;;;;;;4977978;28;20389;-81
2022/01/03 07:03:26;;;;;;;;;;;8.30;99.90;;;;;;4977965;28;19992;-79
2022/01/03 07:05:53;;;;;;;;;;;8.30;99.90;;;;;;4976536;28;20420;-80
2022/01/03 07:08:21;;;;;;;;;;;8.40;99.90;;;;;;4980267;28;19926;-83
2022/01/03 07:10:47;;;;;;;;;;;8.40;99.90;;;;;;4978037;28;19926;-82
2022/01/03 07:13:14;;;;;;;;;;;8.20;99.90;;;;;;4985613;28;19926;-82
2022/01/03 07:21:11;;;;;;;;;;;8.30;99.90;;;;;;4987925;28;19933;-81
2022/01/03 07:23:37;;;;;;;;;;;8.50;99.90;;;;;;4995655;28;19937;-82
2022/01/03 07:26:04;;;;;;;;;;;8.50;99.90;;;;;;4988232;28;19926;-83
2022/01/03 07:28:30;;;;;;;;;;;8.50;99.90;;;;;;4989599;28;19926;-82
2022/01/03 07:30:57;;;;;;;;;;;8.40;99.90;;;;;;4989869;28;19926;-81
2022/01/03 07:33:23;;;;;;;;;;;8.50;99.90;;;;;;4986800;28;19930;-82
2022/01/03 07:35:51;;;;;;;;;;;8.40;99.90;;;;;;4984780;28;19933;-82
2022/01/03 07:38:18;;;;;;;;;;;8.50;99.90;;;;;;4985802;28;20295;-83
2022/01/03 07:40:44;;;;;;;;;;;8.30;99.90;;;;;;4991118;28;19927;-82
2022/01/03 07:43:11;;;;;;;;;;;8.40;99.90;;;;;;4991384;28;19926;-82
2022/01/03 07:45:37;;;;;;;;;;;8.60;99.90;;;;;;4988367;28;19926;-81
2022/01/03 07:48:04;;;;;;;;;;;8.60;99.90;;;;;;4989504;28;19926;-80
2022/01/03 07:50:30;;;;;;;;;;;8.70;99.90;;;;;;4992044;28;19988;-80
2022/01/03 07:52:59;;;;;;;;;;;8.50;99.90;;;;;;4988541;28;19961;-83
2022/01/03 07:55:26;;;;;;;;;;;8.50;99.90;;;;;;4987026;28;19949;-84
2022/01/03 07:57:52;;;;;;;;;;;8.50;99.90;;;;;;4987798;28;19937;-81
2022/01/03 08:00:19;;;;;;;;;;;8.50;99.90;;;;;;4998874;28;19941;-82
2022/01/03 08:02:46;;;;;;;;;;;8.40;99.90;;;;;;4998510;28;19926;-82
2022/01/03 08:05:13;;;;;;;;;;;8.50;99.90;;;;;;4994824;28;19930;-82
2022/01/03 08:07:40;;;;;;;;;;;8.60;99.90;;;;;;4978612;28;19938;-81
2022/01/03 08:10:09;;;;;;;;;;;8.40;99.90;;;;;;4979161;28;19926;-82
2022/01/03 08:12:37;;;;;;;;;;;8.50;99.90;;;;;;4981764;28;19949;-82
2022/01/03 08:15:04;;;;;;;;;;;8.50;99.90;;;;;;4980401;28;19953;-82
2022/01/03 08:17:30;;;;;;;;;;;8.50;99.90;;;;;;4980874;28;19934;-82
2022/01/03 08:19:57;;;;;;;;;;;8.30;99.90;;;;;;4980415;28;20312;-82
2022/01/03 08:22:23;;;;;;;;;;;8.50;99.90;;;;;;4979883;28;19965;-82
2022/01/03 08:24:50;;;;;;;;;;;8.40;99.90;;;;;;4980860;28;19926;-83
2022/01/03 08:27:17;;;;;;;;;;;8.40;99.90;;;;;;4981575;28;19948;-82
2022/01/03 08:29:44;;;;;;;;;;;8.40;99.90;;;;;;4985887;28;19926;-81
2022/01/03 08:32:11;;;;;;;;;;;8.50;99.90;;;;;;4987121;28;19926;-82
2022/01/03 08:34:38;;;;;;;;;;;8.40;99.90;;;;;;4983524;28;19954;-85
2022/01/03 08:37:04;;;;;;;;;;;8.50;99.90;;;;;;4981889;28;19935;-82
2022/01/03 08:39:31;;;;;;;;;;;8.50;99.90;;;;;;4980658;28;19926;-82
2022/01/03 08:41:57;;;;;;;;;;;8.30;99.90;;;;;;4982513;28;19926;-83
2022/01/03 08:44:25;;;;;;;;;;;8.50;99.90;;;;;;4982939;28;19963;-82
2022/01/03 08:46:52;;;;;;;;;;;8.40;99.90;;;;;;4983669;28;19926;-82
2022/01/03 08:49:18;;;;;;;;;;;8.50;99.90;;;;;;4981994;28;19934;-81
2022/01/03 08:51:45;;;;;;;;;;;8.50;99.90;;;;;;4981055;28;19926;-82
2022/01/03 08:54:12;;;;;;;;;;;8.60;99.90;;;;;;4980057;28;19948;-81
2022/01/03 08:56:38;;;;;;;;;;;8.60;99.90;;;;;;4980088;28;20389;-83
2022/01/03 08:59:05;;;;;;;;;;;8.50;99.90;;;;;;4979577;28;19927;-82
2022/01/03 09:01:33;;;;;;;;;;;8.70;99.90;;;;;;4981767;28;19926;-80
2022/01/03 09:03:59;;;;;;;;;;;8.80;99.90;;;;;;4984712;28;20430;-82
2022/01/03 09:06:26;;;;;;;;;;;8.70;99.90;;;;;;4984073;28;19952;-83
2022/01/03 09:08:52;;;;;;;;;;;8.90;99.90;;;;;;4982574;28;19926;-82
2022/01/03 09:11:19;;;;;;;;;;;8.80;99.90;;;;;;4980670;28;19956;-83
2022/01/03 09:13:45;;;;;;;;;;;8.90;99.90;;;;;;4980675;28;19980;-82
2022/01/03 09:16:12;;;;;;;;;;;9.00;99.90;;;;;;4982292;28;19933;-83
2022/01/03 09:18:40;;;;;;;;;;;8.90;99.90;;;;;;4980801;28;19980;-82
2022/01/03 09:21:07;;;;;;;;;;;9.00;99.90;;;;;;4980884;28;19926;-82
2022/01/03 09:23:38;;;;;;;;;;;9.00;99.90;;;;;;4979719;28;19931;-81
2022/01/03 09:28:52;;;;;;;;;;;9.10;99.90;;;;;;4949952;28;20311;-82
2022/01/03 09:31:22;;;;;;;;;;;9.00;99.90;;;;;;4980940;28;19932;-82
2022/01/03 09:33:49;;;;;;;;;;;9.20;99.90;;;;;;4980432;28;19949;-83
2022/01/03 09:36:16;;;;;;;;;;;9.10;99.90;;;;;;4980750;28;20003;-86
2022/01/03 09:38:43;;;;;;;;;;;9.00;99.90;;;;;;4980388;28;19926;-85
2022/01/03 09:41:11;;;;;;;;;;;9.10;99.90;;;;;;4981211;28;19948;-82
2022/01/03 09:43:39;;;;;;;;;;;;;;;;;;4979685;28;19926;-84
2022/01/03 09:46:09;;;;;;;;;;;9.20;99.90;;;;;;4980256;28;19936;-86
2022/01/03 09:48:36;;;;;;;;;;;9.20;99.90;;;;;;4979306;28;19933;-84
2022/01/03 09:51:05;;;;;;;;;;;9.10;99.90;;;;;;4979059;28;19941;-83
2022/01/03 09:53:34;;;;;;;;;;;9.10;99.90;;;;;;4981228;28;19926;-82
2022/01/03 09:56:01;;;;;;;;;;;9.20;99.90;;;;;;4986057;28;19921;-82
2022/01/03 09:58:30;;;;;;;;;;;9.10;99.90;;;;;;4989539;28;19949;-82
2022/01/03 10:00:56;;;;;;;;;;;9.60;99.90;;;;;;4985546;28;20042;-82
2022/01/03 10:03:23;;;;;;;;;;;9.20;99.90;;;;;;4980789;28;20007;-82
2022/01/03 10:05:50;;;;;;;;;;;9.20;99.90;;;;;;4979675;28;19926;-84
2022/01/03 10:08:18;;;;;;;;;;;9.30;99.90;;;;;;4979111;28;20013;-83
2022/01/03 10:10:47;;;;;;;;;;;9.30;99.90;;;;;;4981033;28;21666;-83
2022/01/03 10:13:15;;;;;;;;;;;9.40;99.90;;;;;;4980444;28;19930;-83
2022/01/03 10:15:43;;;;;;;;;;;9.50;99.90;;;;;;4983237;28;19926;-84
2022/01/03 10:18:16;;;;;;;;;;;9.50;99.90;;;;;;4989003;28;19974;-83
2022/01/03 10:20:42;;;;;;;;;;;9.50;99.90;;;;;;4993146;28;19910;-82
2022/01/03 10:23:09;;;;;;;;;;;9.50;99.90;;;;;;4983027;28;19926;-83
2022/01/03 10:25:37;;;;;;;;;;;9.50;99.90;;;;;;5105935;22;19948;-80
2022/01/03 10:28:05;;;;;;;;;;;9.60;99.90;;;;;;5083563;28;19928;-79
2022/01/03 10:30:36;;;;;;;;;;;9.60;99.90;;;;;;5083992;28;19936;-82
2022/01/03 10:33:04;;;;;;;;;;;9.70;99.90;;;;;;5084890;28;19932;-81
2022/01/03 10:35:35;;;;;;;;;;;9.60;99.90;;;;;;5083891;28;19935;-81
2022/01/03 10:38:01;;;;;;;;;;;9.30;99.90;;;;;;5084648;28;19970;-81
2022/01/03 10:40:29;;;;;;;;;;;;;;;;;;5083031;28;19946;-81
2022/01/03 10:42:58;;;;;;;;;;;9.50;99.90;;;;;;5082896;28;19960;-81
2022/01/03 10:45:25;;;;;;;;;;;;;;;;;;5083159;28;19932;-82
2022/01/03 10:47:52;;;;;;;;;;;;;;;;;;5083073;28;19964;-81
2022/01/03 10:50:20;;;;;;;;;;;;;;;;;;5088201;28;19925;-80
2022/01/03 10:52:48;;;;;;;;;;;;;;;;;;5092748;28;19924;-80
2022/01/03 10:55:15;;;;;;;;;;;;;;;;;;5095732;28;20367;-80
2022/01/03 10:57:43;;;;;;;;;;;;;;;;;;5094657;28;19924;-79
2022/01/03 11:00:14;;;;;;;;;;;10.30;99.90;;;;;;5093313;28;19925;-79
2022/01/03 11:02:41;;;;;;;;;;;10.20;99.90;;;;;;5087395;28;19930;-79
2022/01/03 11:05:11;;;;;;;;;;;10.20;99.90;;;;;;5089862;28;19928;-79
2022/01/03 11:13:07;;;;;;;;;;;10.20;99.90;;;;;;5092418;28;19943;-82
2022/01/03 11:15:37;;;;;;;;;;;10.20;99.90;;;;;;5092861;28;19925;-82
2022/01/03 11:18:14;;;;;;;;;;;10.20;99.90;;;;;;5090912;28;20011;-81
2022/01/03 11:20:41;;;;;;;;;;;10.50;99.90;;;;;;5087270;28;19925;-81
2022/01/03 11:23:08;;;;;;;;;;;10.20;99.90;;;;;;5086363;28;19931;-81
2022/01/03 11:25:35;;;;;;;;;;;9.60;99.90;;;;;;5086585;28;19928;-80
2022/01/03 11:28:02;;;;;;;;;;;10.20;99.90;;;;;;5086161;28;19925;-81
2022/01/03 11:30:29;;;;;;;;;;;10.30;99.90;;;;;;5085993;28;19931;-81
2022/01/03 11:32:57;;;;;;;;;;;10.60;99.90;;;;;;5085514;28;19972;-80
2022/01/03 11:35:24;;;;;;;;;;;10.50;99.90;;;;;;5085086;28;20303;-80
2022/01/03 11:37:51;;;;;;;;;;;10.30;99.90;;;;;;5085029;28;19924;-80
2022/01/03 11:40:18;;;;;;;;;;;10.40;99.90;;;;;;5085160;28;19967;-80
2022/01/03 11:42:45;;;;;;;;;;;10.20;99.90;;;;;;5084813;28;20380;-80
2022/01/03 11:45:12;;;;;;;;;;;10.40;99.90;;;;;;5085791;28;19925;-81
2022/01/03 11:47:38;;;;;;;;;;;10.50;99.90;;;;;;5085709;28;19924;-81
2022/01/03 11:50:07;;;;;;;;;;;10.40;99.90;;;;;;5086045;28;19929;-81
2022/01/03 11:52:37;;;;;;;;;;;10.50;99.90;;;;;;5087975;28;19924;-81
2022/01/03 11:55:05;;;;;;;;;;;10.40;99.90;;;;;;5086870;28;20019;-81
2022/01/03 11:57:56;;;;;;;;;;;10.50;99.90;;;;;;5086300;28;20039;-80
2022/01/03 12:05:54;;;;;;;;;;;10.40;99.90;;;;;;5084702;28;20290;-81
2022/01/03 12:08:21;;;;;;;;;;;10.30;99.90;;;;;;5084564;28;19971;-81
2022/01/03 12:10:48;;;;;;;;;;;10.30;99.90;;;;;;5084775;28;19932;-81
2022/01/03 12:13:15;;;;;;;;;;;10.50;99.90;;;;;;5085135;28;19924;-81
2022/01/03 12:15:42;;;;;;;;;;;;;;;;;;5084261;28;19931;-81
2022/01/03 12:18:09;;;;;;;;;;;;;;;;;;5085272;28;19931;-81
2022/01/03 12:20:39;;;;;;;;;;;10.50;99.90;;;;;;5087827;28;19978;-79
2022/01/03 12:23:07;;;;;;;;;;;10.80;99.90;;;;;;5093082;28;19936;-79
2022/01/03 12:25:35;;;;;;;;;;;10.70;99.90;;;;;;5085785;28;19925;-79
2022/01/03 12:28:03;;;;;;;;;;;10.60;99.90;;;;;;5084097;28;19974;-80
2022/01/03 12:30:31;;;;;;;;;;;;;;;;;;5084485;28;19947;-81
2022/01/03 12:32:58;;;;;;;;;;;;;;;;;;5086123;28;19932;-81
2022/01/03 12:35:26;;;;;;;;;;;;;;;;;;5086379;28;20035;-79
2022/01/03 12:37:53;;;;;;;;;;;;;;;;;;5086181;28;19924;-78
2022/01/03 12:40:24;;;;;;;;;;;10.60;99.90;;;;;;5087295;28;19924;-79
2022/01/03 12:42:57;;;;;;;;;;;10.60;99.90;;;;;;5090213;28;20410;-80
2022/01/03 12:45:43;;;;;;;;;;;10.70;99.90;;;;;;5087728;28;19924;-80
2022/01/03 12:48:19;;;;;;;;;;;10.70;99.90;;;;;;5088234;28;19924;-80
2022/01/03 12:50:47;;;;;;;;;;;;;;;;;;5088388;28;19971;-80
2022/01/03 12:53:33;;;;;;;;;;;10.60;99.90;;;;;;5086876;28;19924;-80
2022/01/03 12:56:00;;;;;;;;;;;;;;;;;;5085987;28;19955;-80
2022/01/03 12:58:39;;;;;;;;;;;10.60;99.90;;;;;;5085699;28;19931;-80
2022/01/03 13:01:08;;;;;;;;;;;10.80;99.90;;;;;;5084153;28;19929;-81
2022/01/03 13:03:37;;;;;;;;;;;;;;;;;;5083172;28;19970;-80
2022/01/03 13:06:10;;;;;;;;;;;10.60;99.90;;;;;;5083794;28;19971;-80
2022/01/03 13:08:37;;;;;;;;;;;;;;;;;;5083472;28;19924;-81
2022/01/03 13:11:06;;;;;;;;;;;10.50;99.90;;;;;;5083370;28;19931;-81
2022/01/03 13:13:36;;;;;;;;;;;10.50;99.90;;;;;;5083503;28;19931;-82
2022/01/03 13:16:17;;;;;;;;;;;10.50;99.90;;;;;;5084617;28;19932;-79
2022/01/03 13:18:46;;;;;;;;;;;9.80;99.90;;;;;;5091406;28;19924;-79
2022/01/03 13:21:13;;;;;;;;;;;10.00;99.90;;;;;;5091965;28;19924;-80
2022/01/03 13:23:40;;;;;;;;;;;10.50;99.90;;;;;;5088606;28;19924;-81
2022/01/03 13:26:07;;;;;;;;;;;;;;;;;;5084477;28;19928;-80
2022/01/03 13:28:34;;;;;;;;;;;;;;;;;;5086747;28;19924;-80
2022/01/03 13:31:02;;;;;;;;;;;;;;;;;;5087402;28;19960;-80
2022/01/03 13:33:29;;;;;;;;;;;;;;;;;;5087664;28;20331;-80
2022/01/03 13:35:57;;;;;;;;;;;;;;;;;;5088508;28;19964;-80
2022/01/03 13:38:24;;;;;;;;;;;;;;;;;;5088843;28;19924;-80
2022/01/03 13:40:52;;;;;;;;;;;;;;;;;;5088775;28;19925;-81
2022/01/03 13:43:25;;;;;;;;;;;;;;;;;;5085492;28;19929;-81
2022/01/03 13:51:24;;;;;;;;;;;;;;;;;;5095197;28;19939;-80
2022/01/03 13:53:52;;;;;;;;;;;;;;;;;;5091141;28;19925;-79
2022/01/03 13:56:19;;;;;;;;;;;;;;;;;;5089473;28;19924;-82
2022/01/03 13:58:47;;;;;;;;;;;;;;;;;;5085817;28;19998;-78
2022/01/03 14:01:15;;;;;;;;;;;;;;;;;;5088004;28;19936;-78
2022/01/03 14:03:43;;;;;;;;;;;;;;;;;;5082661;28;19924;-78
2022/01/03 14:06:11;;;;;;;;;;;;;;;;;;5083453;28;19924;-80
2022/01/03 14:08:38;;;;;;;;;;;;;;;;;;5085219;28;19967;-80
2022/01/03 14:11:06;;;;;;;;;;;;;;;;;;5088934;28;19924;-80
2022/01/03 14:13:35;;;;;;;;;;;;;;;;;;5086416;28;19936;-81
2022/01/03 14:16:03;;;;;;;;;;;;;;;;;;5085113;28;19981;-80
2022/01/03 14:18:31;;;;;;;;;;;;;;;;;;5085700;28;20345;-79
2022/01/03 14:20:58;;;;;;;;;;;;;;;;;;5087744;28;20019;-79
2022/01/03 14:23:26;;;;;;;;;;;;;;;;;;5087164;28;19931;-79
2022/01/03 14:25:54;;;;;;;;;;;;;;;;;;5083966;28;19932;-80
2022/01/03 14:28:22;;;;;;;;;;;;;;;;;;5084854;28;19924;-80
2022/01/03 14:30:50;;;;;;;;;;;;;;;;;;5088235;28;19966;-80
2022/01/03 14:33:17;;;;;;;;;;;;;;;;;;5087325;28;19925;-80
2022/01/03 14:35:45;;;;;;;;;;;;;;;;;;5089789;28;19936;-80
2022/01/03 14:38:13;;;;;;;;;;;;;;;;;;5091298;28;19924;-80
2022/01/03 14:40:41;;;;;;;;;;;;;;;;;;5087741;28;19950;-80
2022/01/03 14:43:10;;;;;;;;;;;;;;;;;;5085787;28;19925;-79
2022/01/03 14:45:38;;;;;;;;;;;;;;;;;;5087219;28;19924;-79
2022/01/03 14:48:06;;;;;;;;;;;;;;;;;;5084675;28;19925;-80
2022/01/03 14:50:35;;;;;;;;;;;;;;;;;;5088752;28;19925;-80
2022/01/03 14:53:04;;;;;;;;;;;;;;;;;;5089132;28;19991;-80
2022/01/03 14:55:33;;;;;;;;;;;;;;;;;;5089403;28;19938;-79
2022/01/03 14:58:03;;;;;;;;;;;;;;;;;;5088801;28;19925;-78
2022/01/03 15:00:31;;;;;;;;;;;;;;;;;;5084062;28;19963;-79
2022/01/03 15:03:00;;;;;;;;;;;;;;;;;;5083991;28;19928;-78
2022/01/03 15:05:28;;;;;;;;;;;;;;;;;;5084559;28;20426;-79
2022/01/03 15:07:56;;;;;;;;;;;;;;;;;;5086426;28;20324;-78
2022/01/03 15:10:24;;;;;;;;;;;;;;;;;;5087763;28;19924;-81
2022/01/03 15:12:52;;;;;;;;;;;;;;;;;;5093143;28;19912;-81
2022/01/03 15:15:20;;;;;;;;;;;;;;;;;;5085758;28;19925;-78
2022/01/03 15:17:47;;;;;;;;;;;;;;;;;;5083653;28;20382;-79
2022/01/03 15:20:15;;;;;;;;;;;;;;;;;;5085820;28;19924;-79
2022/01/03 15:22:43;;;;;;;;;;;;;;;;;;5085415;28;20347;-79
2022/01/03 15:25:11;;;;;;;;;;;10.20;99.90;;;;;;5082377;28;19928;-80